Latest Coastal Weather Observations for Cape Borda

IDT60701

Issued at 6:32 pm EDT Monday 2 March 2015 (issued every 10 minutes, with the page automatically refreshed every 10 minutes)

About coastal observations | Map of coastal stations | Coastal observations for TAS | Marine services | Other Formats
Station Details ID: 022823 Name: CAPE BORDA Lat: -35.75 Lon: 136.60 Height: 158.0 m
Data from the previous 72 hours. | See also: Recent months at Cape Borda
Date/Time
EDT
Temp

°C
Wind Pressure Rain
since 9am
mm
Weather Cloud Vis
km
Sea
Height
m
Swell
Dir
 
Speed
knots
Gust
knots
hPa Trend Height
m
Period
s
Dir
02/06:30pm 16.9 S 14 19 1015.0 - 0.0 - - - - - - -
02/06:00pm 17.6 S 13 18 1015.3 - 0.0 - - - - - - -
02/05:30pm 18.2 S 15 22 1014.6 - 0.0 - - - - - - -
02/05:00pm 20.3 S 15 20 1014.2 - 0.0 - - - - - - -
02/04:30pm 19.4 SW 15 20 1014.8 - 0.0 - - - - - - -
02/04:00pm 19.5 SW 14 18 1014.8 - 0.0 - - - - - - -
02/03:30pm 19.5 SW 10 14 1014.6 R 0.0 Fine Mostly cloudy 15 <0.5 3.0 8 SW
02/03:00pm 19.9 SW 12 17 1015.4 - 0.0 - - - - - - -
02/02:30pm 19.4 WSW 9 11 1015.1 - 0.0 - - - - - - -
02/02:00pm 20.0 SW 7 10 1014.7 - 0.0 - - - - - - -
02/01:30pm 20.9 W 7 11 1015.3 - 0.0 - - - - - - -
02/01:00pm 19.2 WNW 8 11 1015.6 - 0.0 - - - - - - -
02/12:30pm 20.0 WNW 4 8 1015.0 - 0.0 - - - - - - -
02/12:00pm 19.4 S 3 7 1015.8 - 0.0 - - - - - - -
02/11:30am 17.8 ENE 5 8 1015.8 - 0.0 - - - - - - -
02/11:00am 17.6 ESE 6 9 1015.7 - 0.0 - - - - - - -
02/10:30am 16.6 ESE 8 11 1015.9 - 0.0 - - - - - - -
02/10:00am 15.8 ESE 9 12 1016.3 - 0.0 - - - - - - -
02/09:30am 15.0 ESE 7 9 1016.3 F 0.0 Haze Mostly cloudy 15 <0.5 3.4 7 SW
02/09:00am 14.1 SE 7 9 1016.6 - 0.0 - - - - - - -
02/08:30am 13.5 ESE 6 8 1016.9 - 0.0 - - - - - - -
02/08:00am 12.6 SE 7 10 1016.3 - 0.0 - - - - - - -
02/07:30am 12.4 SE 8 9 1016.0 - 0.0 - - - - - - -
02/07:00am 12.1 ESE 8 9 1015.8 - 0.0 - - - - - - -
02/06:30am 11.9 SE 7 9 1015.6 - 0.0 - - - - - - -
02/06:00am 12.2 ESE 9 12 1015.3 - 0.0 - - - - - - -
02/05:30am 11.4 SE 10 12 1015.2 - 0.0 - - - - - - -
02/05:00am 11.4 SE 9 11 1015.3 - 0.0 - - - - - - -
02/04:30am 11.3 SE 9 11 1015.7 - 0.0 - - - - - - -
02/04:00am 10.8 SE 9 11 1015.7 - 0.0 - - - - - - -
02/03:30am 10.7 ESE 10 13 1015.3 - 0.0 - - - - - - -
02/03:00am 11.1 SE 10 12 1015.9 - 0.0 - - - - - - -
02/02:30am 11.9 SE 10 14 1016.6 - 0.0 - - - - - - -
02/02:00am 12.0 SE 10 13 1017.2 - 0.0 - - - - - - -
02/01:30am 12.0 SE 10 13 1017.8 - 0.0 - - - - - - -
02/01:00am 11.9 SE 11 13 1017.6 - 0.0 - - - - - - -
02/12:30am 12.0 SE 11 14 1017.6 - 0.0 - - - - - - -
02/12:00am 12.2 SE 12 16 1017.7 - 0.0 - - - - - - -
 
Date/Time
EDT
Temp

°C
Wind Pressure Rain
since 9am
mm
Weather Cloud Vis
km
Sea
Height
m
Swell
Dir
 
Speed
knots
Gust
knots
hPa Trend Height
m
Period
s
Dir
01/11:30pm 12.2 SE 13 16 1017.6 - 0.0 - - - - - - -
01/11:00pm 12.6 SE 13 17 1017.8 - 0.0 - - - - - - -
01/10:30pm 12.7 SE 12 16 1017.8 - 0.0 - - - - - - -
01/10:00pm 13.5 SE 14 21 1018.0 - 0.0 - - - - - - -
01/09:30pm 13.8 SSE 16 23 1017.4 - 0.0 - - - - - - -
01/09:00pm 14.1 SSE 15 19 1017.6 - 0.0 - - - - - - -
01/08:30pm 14.8 SSE 15 21 1017.7 - 0.0 - - - - - - -
01/08:00pm 15.9 SSE 14 19 1017.6 - 0.0 - - - - - - -
01/07:30pm 17.1 SSE 14 20 1017.6 - 0.0 - - - - - - -
01/07:00pm 17.9 SSE 14 18 1017.5 - 0.0 - - - - - - -
01/06:30pm 18.8 SSE 14 19 1017.2 - 0.0 - - - - - - -
01/06:00pm 19.3 SSE 10 15 1017.2 - 0.0 - - - - - - -
01/05:30pm 19.9 SSE 13 18 1017.1 - 0.0 - - - - - - -
01/05:00pm 20.3 SE 10 15 1017.3 - 0.0 - - - - - - -
01/04:30pm 19.0 SSE 11 16 1017.5 - 0.0 - - - - - - -
01/04:00pm 18.9 SE 12 19 1017.6 - 0.0 - - - - - - -
01/03:30pm 19.0 S 14 19 1017.7 R 0.0 Fine Partly cloudy 15 2 4.9 7 SW
01/03:00pm 19.2 SSE 15 19 1018.1 - 0.0 - - - - - - -
01/02:30pm 19.3 S 13 21 1018.4 - 0.0 - - - - - - -
01/02:00pm 19.3 S 12 18 1018.2 - 0.0 - - - - - - -
01/01:30pm 19.2 S 11 18 1018.6 - 0.0 - - - - - - -
01/01:00pm 19.2 S 12 18 1018.7 - 0.0 - - - - - - -
01/12:30pm 18.0 S 11 16 1018.7 - 0.0 - - - - - - -
01/12:00pm 18.6 SSW 10 15 1018.8 - 0.0 - - - - - - -
01/11:30am 17.1 S 13 17 1018.8 - 0.0 - - - - - - -
01/11:00am 17.0 S 11 15 1018.7 - 0.0 - - - - - - -
01/10:30am 16.7 S 13 17 1018.1 - 0.0 - - - - - - -
01/10:00am 16.8 S 13 17 1017.9 - 0.0 - - - - - - -
01/09:30am 16.4 S 11 15 1017.3 R 0.4 Haze Partly cloudy 15 <0.5 5.2 7 SW
01/09:00am 15.9 S 8 13 1017.2 - 0.4 - - - - - - -
01/08:30am 14.7 S 10 14 1016.6 - 0.4 - - - - - - -
01/08:00am 14.7 S 9 15 1016.2 - 0.4 - - - - - - -
01/07:30am 14.5 S 12 17 1015.3 - 0.4 - - - - - - -
01/07:00am 14.2 S 10 14 1015.0 - 0.4 - - - - - - -
01/06:30am 14.4 S 13 17 1014.4 - 0.4 - - - - - - -
01/06:00am 14.0 S 10 15 1014.6 - 0.4 - - - - - - -
01/05:30am 14.1 S 12 17 1014.2 - 0.4 - - - - - - -
01/05:00am 14.9 S 14 19 1013.8 - 0.4 - - - - - - -
01/04:30am 14.5 S 14 21 1013.7 - 0.4 - - - - - - -
01/04:00am 14.5 S 14 22 1013.7 - 0.4 - - - - - - -
01/03:30am 14.7 SSW 13 18 1013.4 - 0.4 - - - - - - -
01/03:00am 14.9 SSW 15 22 1013.6 - 0.4 - - - - - - -
01/02:30am 15.1 SSW 14 19 1013.7 - 0.4 - - - - - - -
01/02:00am 14.5 SSW 13 19 1013.7 - 0.4 - - - - - - -
01/01:30am 15.1 SSW 15 20 1013.6 - 0.4 - - - - - - -
01/01:00am 15.2 SSW 15 21 1013.5 - 0.4 - - - - - - -
01/12:30am 15.3 SSW 16 23 1013.2 - 0.4 - - - - - - -
01/12:00am 15.6 SSW 15 22 1013.5 - 0.4 - - - - - - -
 
Date/Time
EDT
Temp

°C
Wind Pressure Rain
since 9am
mm
Weather Cloud Vis
km
Sea
Height
m
Swell
Dir
 
Speed
knots
Gust
knots
hPa Trend Height
m
Period
s
Dir
28/11:34pm 15.4 SSW 15 25 1013.3 - 0.4 - - - - - - -
28/11:30pm 15.4 SSW 15 21 1013.4 - 0.4 - - - - - - -
28/11:00pm 15.7 SSW 16 23 1013.1 - 0.4 - - - - - - -
28/10:32pm 15.9 SSW 15 25 1012.9 - 0.4 - - - - - - -
28/10:30pm 15.8 SSW 15 22 1012.9 - 0.4 - - - - - - -
28/10:00pm 16.1 SSW 17 23 1012.5 - 0.4 - - - - - - -
28/09:30pm 16.0 SSW 17 23 1011.7 - 0.4 - - - - - - -
28/09:00pm 16.4 SSW 17 24 1011.4 - 0.4 - - - - - - -
28/08:30pm 16.7 SSW 16 22 1010.9 - 0.4 - - - - - - -
28/08:00pm 17.4 SSW 18 25 1010.5 - 0.4 - - - - - - -
28/07:30pm 17.9 SSW 17 22 1010.1 - 0.4 - - - - - - -
28/07:00pm 18.6 SSW 19 25 1009.6 - 0.4 - - - - - - -
28/06:30pm 19.1 SSW 20 29 1008.7 - 0.4 - - - - - - -
28/06:27pm 19.4 SSW 19 29 1009.1 - 0.4 - - - - - - -
28/06:00pm 20.1 SSW 20 28 1008.8 - 0.4 - - - - - - -
28/05:30pm 19.9 SSW 21 30 1008.4 - 0.4 - - - - - - -
28/05:00pm 20.0 SSW 21 29 1007.9 - 0.4 - - - - - - -
28/04:56pm 19.7 SSW 19 29 1007.8 - 0.4 - - - - - - -
28/04:30pm 19.5 SSW 21 28 1007.6 - 0.4 - - - - - - -
28/04:03pm 18.4 SSW 19 29 1007.2 - 0.4 - - - - - - -
28/04:00pm 18.3 SSW 17 25 1007.3 - 0.4 - - - - - - -
28/03:30pm 18.7 SSW 17 25 1006.7 R 0.4 Recent precip. Mostly cloudy 15 2 2.3 5 SW
28/03:00pm 18.7 SSW 17 24 1006.6 - 0.4 - - - - - - -
28/02:44pm 20.7 S 19 29 1006.3 - 0.0 - - - - - - -
28/02:30pm 20.5 S 21 28 1006.2 - 0.0 - - - - - - -
28/02:00pm 21.1 S 23 31 1005.8 - 0.0 - - - - - - -
28/01:33pm 20.1 S 20 30 1005.6 - 0.0 - - - - - - -
28/01:30pm 20.0 S 21 30 1005.5 - 0.0 - - - - - - -
28/01:00pm 20.5 SSW 17 24 1006.0 - 0.0 - - - - - - -
28/12:30pm 21.8 SSW 18 22 1005.7 - 0.0 - - - - - - -
28/12:00pm 24.3 SSW 17 23 1005.5 - 0.0 - - - - - - -
28/11:30am 24.3 SSW 16 21 1005.4 - 0.0 - - - - - - -
28/11:00am 24.1 SSW 16 19 1005.1 - 0.0 - - - - - - -
28/10:30am 24.1 SSW 11 17 1005.0 - 0.0 - - - - - - -
28/10:00am 23.2 SSW 14 17 1004.8 - 0.0 - - - - - - -
28/09:34am 22.1 - - - 1004.6 R - Haze Mostly clear 18 <0.5 - - SW
28/09:00am 20.3 SW 11 14 1005.0 - 0.0 - - - - - - -
28/08:30am 22.2 N 6 10 1004.4 - 0.0 - - - - - - -
28/08:00am 21.7 NE 9 12 1004.1 - 0.0 - - - - - - -
28/07:30am 22.0 NE 11 15 1003.7 - 0.0 - - - - - - -
28/07:00am 21.5 ENE 11 14 1003.6 - 0.0 - - - - - - -
28/06:30am 21.8 ENE 11 14 1003.2 - 0.0 - - - - - - -
28/06:00am 21.2 ENE 12 15 1003.4 - 0.0 - - - - - - -
28/05:30am 21.1 ENE 14 18 1003.1 - 0.0 - - - - - - -
28/05:00am 21.7 ENE 13 17 1003.0 - 0.0 - - - - - - -
28/04:30am 21.4 ENE 13 18 1003.2 - 0.0 - - - - - - -
28/04:00am 20.6 ENE 14 20 1003.4 - 0.0 - - - - - - -
28/03:30am 21.1 E 13 18 1003.7 - 0.0 - - - - - - -
28/03:00am 21.5 E 12 17 1004.2 - 0.0 - - - - - - -
28/02:30am 21.7 ENE 12 17 1004.5 - 0.0 - - - - - - -
28/02:00am 22.2 E 13 18 1004.5 - 0.0 - - - - - - -
28/01:30am 21.6 E 10 14 1005.3 - 0.0 - - - - - - -
28/01:00am 21.5 E 12 18 1005.6 - 0.0 - - - - - - -
28/12:30am 21.0 E 15 20 1006.0 - 0.0 - - - - - - -
28/12:00am 20.7 E 12 19 1006.7 - 0.0 - - - - - - -
 
Date/Time
EDT
Temp

°C
Wind Pressure Rain
since 9am
mm
Weather Cloud Vis
km
Sea
Height
m
Swell
Dir
 
Speed
knots
Gust
knots
hPa Trend Height
m
Period
s
Dir
27/11:30pm 20.9 E 11 15 1007.0 - 0.0 - - - - - - -
27/11:00pm 22.2 E 9 11 1006.7 - 0.0 - - - - - - -
27/10:30pm 21.2 E 9 10 1007.0 - 0.0 - - - - - - -
27/10:00pm 20.5 E 9 11 1007.3 - 0.0 - - - - - - -
27/09:30pm 19.9 ESE 9 11 1007.3 - 0.0 - - - - - - -
27/09:00pm 20.7 SE 7 8 1008.1 - 0.0 - - - - - - -
27/08:30pm 20.7 S 8 10 1007.7 - 0.0 - - - - - - -
27/08:00pm 21.3 S 11 15 1007.5 - 0.0 - - - - - - -
27/07:30pm 21.5 SSW 13 18 1007.9 - 0.0 - - - - - - -

Other Formats:

Comma delimited format used in spreadsheet applications
http://www.bom.gov.au/fwo/IDT60701/IDT60701.95805.axf

JavaScript Object Notation format (JSON) in row-major order
http://www.bom.gov.au/fwo/IDT60701/IDT60701.95805.json